sensor_id;sensor_type;location;lat;lon;timestamp;pressure;altitude;pressure_sealevel;temperature;humidity
39954;BME280;25631;51.516;-0.470;2023-02-18T00:01:49;102069.59;;;9.70;46.10
39954;BME280;25631;51.516;-0.470;2023-02-18T00:04:25;102066.44;;;9.84;45.80
39954;BME280;25631;51.516;-0.470;2023-02-18T00:07:02;102067.43;;;10.06;45.87
39954;BME280;25631;51.516;-0.470;2023-02-18T00:09:38;102072.06;;;9.97;45.89
39954;BME280;25631;51.516;-0.470;2023-02-18T00:12:15;102064.26;;;9.80;46.07
39954;BME280;25631;51.516;-0.470;2023-02-18T00:14:52;102060.19;;;10.24;46.10
39954;BME280;25631;51.516;-0.470;2023-02-18T00:17:29;102058.92;;;9.54;46.12
39954;BME280;25631;51.516;-0.470;2023-02-18T00:20:06;102058.37;;;9.86;46.42
39954;BME280;25631;51.516;-0.470;2023-02-18T00:22:43;102064.29;;;9.66;46.48
39954;BME280;25631;51.516;-0.470;2023-02-18T00:25:20;102060.69;;;9.74;46.66
39954;BME280;25631;51.516;-0.470;2023-02-18T00:27:56;102059.33;;;10.18;46.48
39954;BME280;25631;51.516;-0.470;2023-02-18T00:30:33;102051.29;;;10.04;46.77
39954;BME280;25631;51.516;-0.470;2023-02-18T00:33:10;102053.56;;;10.18;47.16
39954;BME280;25631;51.516;-0.470;2023-02-18T00:35:47;102049.75;;;9.68;47.38
39954;BME280;25631;51.516;-0.470;2023-02-18T00:38:24;102049.63;;;9.47;47.88
39954;BME280;25631;51.516;-0.470;2023-02-18T00:41:01;102044.65;;;9.60;48.24
39954;BME280;25631;51.516;-0.470;2023-02-18T00:43:37;102039.17;;;9.52;48.55
39954;BME280;25631;51.516;-0.470;2023-02-18T00:46:15;102035.78;;;9.53;48.85
39954;BME280;25631;51.516;-0.470;2023-02-18T00:48:52;102030.07;;;9.48;48.79
39954;BME280;25631;51.516;-0.470;2023-02-18T00:51:28;102030.48;;;9.51;49.00
39954;BME280;25631;51.516;-0.470;2023-02-18T00:54:05;102032.40;;;9.26;49.00
39954;BME280;25631;51.516;-0.470;2023-02-18T00:56:42;102035.83;;;9.59;48.73
39954;BME280;25631;51.516;-0.470;2023-02-18T00:59:18;102030.64;;;9.52;48.77
39954;BME280;25631;51.516;-0.470;2023-02-18T01:01:55;102019.80;;;9.37;48.85
39954;BME280;25631;51.516;-0.470;2023-02-18T01:04:31;102019.54;;;9.51;48.63
39954;BME280;25631;51.516;-0.470;2023-02-18T01:07:08;102018.01;;;9.25;48.56
39954;BME280;25631;51.516;-0.470;2023-02-18T01:09:45;102021.02;;;9.42;48.24
39954;BME280;25631;51.516;-0.470;2023-02-18T01:12:21;102020.43;;;9.48;48.08
39954;BME280;25631;51.516;-0.470;2023-02-18T01:14:58;102020.62;;;9.53;47.98
39954;BME280;25631;51.516;-0.470;2023-02-18T01:17:34;102005.27;;;9.60;47.81
39954;BME280;25631;51.516;-0.470;2023-02-18T01:20:12;102005.41;;;9.49;47.54
39954;BME280;25631;51.516;-0.470;2023-02-18T01:22:49;101997.73;;;9.22;47.31
39954;BME280;25631;51.516;-0.470;2023-02-18T01:25:26;102004.15;;;9.44;47.31
39954;BME280;25631;51.516;-0.470;2023-02-18T01:28:04;102007.96;;;9.49;47.09
39954;BME280;25631;51.516;-0.470;2023-02-18T01:30:41;101999.49;;;9.63;46.88
39954;BME280;25631;51.516;-0.470;2023-02-18T01:33:18;102007.47;;;9.27;46.69
39954;BME280;25631;51.516;-0.470;2023-02-18T01:35:55;102008.52;;;9.37;46.40
39954;BME280;25631;51.516;-0.470;2023-02-18T01:38:31;102010.82;;;9.06;46.33
39954;BME280;25631;51.516;-0.470;2023-02-18T01:41:08;102011.28;;;9.46;46.21
39954;BME280;25631;51.516;-0.470;2023-02-18T01:43:45;102011.53;;;9.43;46.12
39954;BME280;25631;51.516;-0.470;2023-02-18T01:46:22;102009.86;;;9.22;46.22
39954;BME280;25631;51.516;-0.470;2023-02-18T01:49:00;102010.40;;;9.14;46.12
39954;BME280;25631;51.516;-0.470;2023-02-18T01:51:38;102008.86;;;8.93;46.31
39954;BME280;25631;51.516;-0.470;2023-02-18T01:54:18;102005.62;;;8.98;46.10
39954;BME280;25631;51.516;-0.470;2023-02-18T01:57:00;102014.76;;;9.17;45.77
39954;BME280;25631;51.516;-0.470;2023-02-18T01:59:39;102012.26;;;9.38;45.40
39954;BME280;25631;51.516;-0.470;2023-02-18T02:02:20;102013.58;;;8.90;45.52
39954;BME280;25631;51.516;-0.470;2023-02-18T02:04:57;102022.31;;;8.87;45.78
39954;BME280;25631;51.516;-0.470;2023-02-18T02:07:33;102016.36;;;8.59;46.29
39954;BME280;25631;51.516;-0.470;2023-02-18T02:10:11;102018.52;;;8.28;46.20
39954;BME280;25631;51.516;-0.470;2023-02-18T02:12:57;102012.84;;;8.43;45.67
39954;BME280;25631;51.516;-0.470;2023-02-18T02:15:41;102007.48;;;8.65;45.37
39954;BME280;25631;51.516;-0.470;2023-02-18T02:18:33;102008.28;;;8.63;45.39
39954;BME280;25631;51.516;-0.470;2023-02-18T02:22:34;101995.87;;;8.72;45.14
39954;BME280;25631;51.516;-0.470;2023-02-18T02:25:23;101996.71;;;9.08;44.77
39954;BME280;25631;51.516;-0.470;2023-02-18T02:30:49;101970.15;;;8.33;44.16
39954;BME280;25631;51.516;-0.470;2023-02-18T02:33:53;101977.75;;;8.79;43.73
39954;BME280;25631;51.516;-0.470;2023-02-18T02:36:38;101973.81;;;8.84;43.12
39954;BME280;25631;51.516;-0.470;2023-02-18T02:39:20;101957.21;;;8.30;42.78
39954;BME280;25631;51.516;-0.470;2023-02-18T02:42:06;101949.10;;;8.28;42.42
39954;BME280;25631;51.516;-0.470;2023-02-18T02:44:50;101949.46;;;8.63;42.22
39954;BME280;25631;51.516;-0.470;2023-02-18T02:47:34;101954.69;;;9.01;41.89
39954;BME280;25631;51.516;-0.470;2023-02-18T02:50:25;101950.50;;;8.49;41.42
39954;BME280;25631;51.516;-0.470;2023-02-18T02:53:08;101947.63;;;9.01;40.95
39954;BME280;25631;51.516;-0.470;2023-02-18T02:55:49;101940.60;;;8.46;41.09
39954;BME280;25631;51.516;-0.470;2023-02-18T02:58:25;101930.73;;;8.70;40.82
39954;BME280;25631;51.516;-0.470;2023-02-18T03:01:19;101918.44;;;8.39;40.64
39954;BME280;25631;51.516;-0.470;2023-02-18T03:04:15;101911.12;;;8.40;40.54
39954;BME280;25631;51.516;-0.470;2023-02-18T03:07:10;101906.08;;;8.66;40.59
39954;BME280;25631;51.516;-0.470;2023-02-18T03:10:04;101900.50;;;8.21;40.84
39954;BME280;25631;51.516;-0.470;2023-02-18T03:12:50;101903.68;;;8.52;40.59
39954;BME280;25631;51.516;-0.470;2023-02-18T03:15:37;101897.33;;;8.16;40.57
39954;BME280;25631;51.516;-0.470;2023-02-18T03:18:17;101897.54;;;8.16;40.48
39954;BME280;25631;51.516;-0.470;2023-02-18T03:21:03;101893.94;;;8.37;40.31
39954;BME280;25631;51.516;-0.470;2023-02-18T03:23:45;101901.32;;;8.28;40.43
39954;BME280;25631;51.516;-0.470;2023-02-18T03:26:26;101897.68;;;8.14;40.34
39954;BME280;25631;51.516;-0.470;2023-02-18T03:29:06;101892.63;;;8.31;40.34
39954;BME280;25631;51.516;-0.470;2023-02-18T03:31:48;101887.90;;;8.17;40.37
39954;BME280;25631;51.516;-0.470;2023-02-18T03:34:29;101888.25;;;8.52;40.06
39954;BME280;25631;51.516;-0.470;2023-02-18T03:37:07;101886.62;;;8.75;39.94
39954;BME280;25631;51.516;-0.470;2023-02-18T03:39:47;101878.58;;;8.47;40.05
39954;BME280;25631;51.516;-0.470;2023-02-18T03:42:25;101879.65;;;8.64;40.02
39954;BME280;25631;51.516;-0.470;2023-02-18T03:45:02;101871.23;;;8.37;39.90
39954;BME280;25631;51.516;-0.470;2023-02-18T03:47:39;101868.06;;;8.50;39.94
39954;BME280;25631;51.516;-0.470;2023-02-18T03:50:16;101860.63;;;8.38;39.99
39954;BME280;25631;51.516;-0.470;2023-02-18T03:52:52;101855.80;;;8.24;40.03
39954;BME280;25631;51.516;-0.470;2023-02-18T03:55:29;101867.26;;;8.61;40.10
39954;BME280;25631;51.516;-0.470;2023-02-18T03:58:05;101852.41;;;8.25;40.14
39954;BME280;25631;51.516;-0.470;2023-02-18T04:00:42;101847.53;;;7.92;40.45
39954;BME280;25631;51.516;-0.470;2023-02-18T04:03:19;101850.47;;;8.09;40.37
39954;BME280;25631;51.516;-0.470;2023-02-18T04:05:56;101848.93;;;8.34;40.52
39954;BME280;25631;51.516;-0.470;2023-02-18T04:08:35;101847.57;;;8.05;40.73
39954;BME280;25631;51.516;-0.470;2023-02-18T04:11:11;101843.90;;;8.07;40.81
39954;BME280;25631;51.516;-0.470;2023-02-18T04:13:48;101847.72;;;7.81;40.89
39954;BME280;25631;51.516;-0.470;2023-02-18T04:16:24;101852.96;;;8.06;40.65
39954;BME280;25631;51.516;-0.470;2023-02-18T04:19:01;101843.26;;;8.12;40.77
39954;BME280;25631;51.516;-0.470;2023-02-18T04:21:37;101841.90;;;8.22;40.75
39954;BME280;25631;51.516;-0.470;2023-02-18T04:24:14;101837.95;;;8.20;40.95
39954;BME280;25631;51.516;-0.470;2023-02-18T04:26:50;101841.39;;;8.40;40.85
39954;BME280;25631;51.516;-0.470;2023-02-18T04:29:27;101840.30;;;8.16;40.92
39954;BME280;25631;51.516;-0.470;2023-02-18T04:32:04;101842.78;;;7.98;40.90
39954;BME280;25631;51.516;-0.470;2023-02-18T04:34:41;101838.86;;;8.16;40.85
39954;BME280;25631;51.516;-0.470;2023-02-18T04:37:17;101845.40;;;8.05;41.08
39954;BME280;25631;51.516;-0.470;2023-02-18T04:39:54;101844.35;;;8.11;41.16
39954;BME280;25631;51.516;-0.470;2023-02-18T04:42:30;101845.94;;;8.10;41.30
39954;BME280;25631;51.516;-0.470;2023-02-18T04:45:08;101846.07;;;7.71;41.71
39954;BME280;25631;51.516;-0.470;2023-02-18T04:47:44;101851.07;;;8.03;41.65
39954;BME280;25631;51.516;-0.470;2023-02-18T04:50:21;101847.78;;;8.38;41.49
39954;BME280;25631;51.516;-0.470;2023-02-18T04:52:58;101847.60;;;8.50;41.36
39954;BME280;25631;51.516;-0.470;2023-02-18T04:55:35;101843.21;;;8.09;41.59
39954;BME280;25631;51.516;-0.470;2023-02-18T04:58:11;101844.50;;;8.21;41.60
39954;BME280;25631;51.516;-0.470;2023-02-18T05:00:48;101846.34;;;8.03;41.85
39954;BME280;25631;51.516;-0.470;2023-02-18T05:03:24;101848.95;;;8.25;41.81
39954;BME280;25631;51.516;-0.470;2023-02-18T05:06:01;101843.36;;;8.49;41.61
39954;BME280;25631;51.516;-0.470;2023-02-18T05:08:38;101841.78;;;8.07;41.90
39954;BME280;25631;51.516;-0.470;2023-02-18T05:11:14;101846.66;;;8.65;41.69
39954;BME280;25631;51.516;-0.470;2023-02-18T05:13:51;101843.89;;;8.37;41.77
39954;BME280;25631;51.516;-0.470;2023-02-18T05:16:27;101843.67;;;8.29;42.21
39954;BME280;25631;51.516;-0.470;2023-02-18T05:19:05;101842.01;;;8.36;42.44
39954;BME280;25631;51.516;-0.470;2023-02-18T05:21:42;101839.90;;;8.60;42.28
39954;BME280;25631;51.516;-0.470;2023-02-18T05:24:19;101837.66;;;8.65;42.50
39954;BME280;25631;51.516;-0.470;2023-02-18T05:26:56;101843.94;;;8.54;42.44
39954;BME280;25631;51.516;-0.470;2023-02-18T05:29:32;101860.13;;;8.38;42.66
39954;BME280;25631;51.516;-0.470;2023-02-18T05:32:09;101861.51;;;8.27;42.54
39954;BME280;25631;51.516;-0.470;2023-02-18T05:34:46;101861.78;;;8.22;42.78
39954;BME280;25631;51.516;-0.470;2023-02-18T05:37:22;101864.47;;;8.59;43.02
39954;BME280;25631;51.516;-0.470;2023-02-18T05:39:59;101854.22;;;8.40;43.01
39954;BME280;25631;51.516;-0.470;2023-02-18T05:42:35;101853.85;;;8.73;42.98
39954;BME280;25631;51.516;-0.470;2023-02-18T05:45:12;101852.82;;;8.49;43.23
39954;BME280;25631;51.516;-0.470;2023-02-18T05:47:48;101860.84;;;8.09;43.82
39954;BME280;25631;51.516;-0.470;2023-02-18T05:50:25;101842.40;;;8.03;43.86
39954;BME280;25631;51.516;-0.470;2023-02-18T05:53:02;101839.62;;;8.22;43.84
39954;BME280;25631;51.516;-0.470;2023-02-18T05:55:38;101843.13;;;8.45;43.80
39954;BME280;25631;51.516;-0.470;2023-02-18T05:58:15;101835.45;;;8.39;43.78
39954;BME280;25631;51.516;-0.470;2023-02-18T06:00:51;101838.26;;;8.35;43.72
39954;BME280;25631;51.516;-0.470;2023-02-18T06:03:28;101838.13;;;8.16;43.76
39954;BME280;25631;51.516;-0.470;2023-02-18T06:06:05;101837.51;;;8.41;43.61
39954;BME280;25631;51.516;-0.470;2023-02-18T06:08:42;101844.44;;;8.36;43.93
39954;BME280;25631;51.516;-0.470;2023-02-18T06:11:19;101833.68;;;8.48;43.82
39954;BME280;25631;51.516;-0.470;2023-02-18T06:13:55;101828.43;;;8.60;43.84
39954;BME280;25631;51.516;-0.470;2023-02-18T06:16:32;101834.26;;;8.33;43.96
39954;BME280;25631;51.516;-0.470;2023-02-18T06:19:09;101829.44;;;8.50;44.03
39954;BME280;25631;51.516;-0.470;2023-02-18T06:21:46;101831.64;;;8.28;44.07
39954;BME280;25631;51.516;-0.470;2023-02-18T06:24:23;101830.97;;;8.39;43.97
39954;BME280;25631;51.516;-0.470;2023-02-18T06:26:59;101837.26;;;8.49;43.95
39954;BME280;25631;51.516;-0.470;2023-02-18T06:29:36;101819.44;;;8.95;43.83
39954;BME280;25631;51.516;-0.470;2023-02-18T06:32:12;101818.84;;;8.50;43.93
39954;BME280;25631;51.516;-0.470;2023-02-18T06:34:49;101813.34;;;8.67;43.98
39954;BME280;25631;51.516;-0.470;2023-02-18T06:37:26;101816.50;;;7.88;44.47
39954;BME280;25631;51.516;-0.470;2023-02-18T06:40:03;101813.17;;;8.61;43.92
39954;BME280;25631;51.516;-0.470;2023-02-18T06:42:39;101816.56;;;8.52;43.88
39954;BME280;25631;51.516;-0.470;2023-02-18T06:45:16;101812.11;;;8.54;44.15
39954;BME280;25631;51.516;-0.470;2023-02-18T06:47:52;101809.25;;;8.29;44.07
39954;BME280;25631;51.516;-0.470;2023-02-18T06:50:29;101816.14;;;8.69;44.00
39954;BME280;25631;51.516;-0.470;2023-02-18T06:53:06;101809.46;;;8.21;44.26
39954;BME280;25631;51.516;-0.470;2023-02-18T06:55:43;101805.99;;;8.47;44.21
39954;BME280;25631;51.516;-0.470;2023-02-18T06:58:20;101804.83;;;8.44;44.15
39954;BME280;25631;51.516;-0.470;2023-02-18T07:00:57;101803.76;;;8.75;43.91
39954;BME280;25631;51.516;-0.470;2023-02-18T07:03:33;101811.48;;;8.27;44.33
39954;BME280;25631;51.516;-0.470;2023-02-18T07:06:10;101808.36;;;8.37;44.24
39954;BME280;25631;51.516;-0.470;2023-02-18T07:08:47;101811.64;;;8.52;44.29
39954;BME280;25631;51.516;-0.470;2023-02-18T07:11:23;101808.98;;;8.45;44.06
39954;BME280;25631;51.516;-0.470;2023-02-18T07:14:00;101813.17;;;8.39;44.26
39954;BME280;25631;51.516;-0.470;2023-02-18T07:16:37;101823.81;;;8.54;44.26
39954;BME280;25631;51.516;-0.470;2023-02-18T07:19:13;101815.91;;;8.43;44.28
39954;BME280;25631;51.516;-0.470;2023-02-18T07:21:50;101817.42;;;8.51;44.30
39954;BME280;25631;51.516;-0.470;2023-02-18T07:24:27;101815.99;;;8.44;44.27
39954;BME280;25631;51.516;-0.470;2023-02-18T07:27:03;101812.40;;;8.33;44.39
39954;BME280;25631;51.516;-0.470;2023-02-18T07:29:40;101817.40;;;8.55;44.32
39954;BME280;25631;51.516;-0.470;2023-02-18T07:32:18;101823.51;;;8.73;44.43
39954;BME280;25631;51.516;-0.470;2023-02-18T07:34:54;101833.35;;;8.78;44.31
39954;BME280;25631;51.516;-0.470;2023-02-18T07:37:32;101839.26;;;8.80;44.19
39954;BME280;25631;51.516;-0.470;2023-02-18T07:40:10;101841.12;;;8.62;44.22
39954;BME280;25631;51.516;-0.470;2023-02-18T07:42:48;101842.12;;;8.44;44.21
39954;BME280;25631;51.516;-0.470;2023-02-18T07:45:25;101850.72;;;8.44;44.34
39954;BME280;25631;51.516;-0.470;2023-02-18T07:48:02;101847.89;;;8.91;44.09
39954;BME280;25631;51.516;-0.470;2023-02-18T07:50:39;101839.72;;;8.36;44.09
39954;BME280;25631;51.516;-0.470;2023-02-18T07:53:16;101847.71;;;8.80;44.23
39954;BME280;25631;51.516;-0.470;2023-02-18T07:55:53;101847.74;;;8.86;44.18
39954;BME280;25631;51.516;-0.470;2023-02-18T07:58:31;101843.54;;;8.30;44.16
39954;BME280;25631;51.516;-0.470;2023-02-18T08:01:11;101854.32;;;8.67;44.26
39954;BME280;25631;51.516;-0.470;2023-02-18T08:03:49;101839.40;;;8.93;43.99
39954;BME280;25631;51.516;-0.470;2023-02-18T08:06:28;101836.13;;;8.63;44.10
39954;BME280;25631;51.516;-0.470;2023-02-18T08:09:07;101836.57;;;8.63;44.32
39954;BME280;25631;51.516;-0.470;2023-02-18T08:11:43;101834.17;;;8.46;44.26
39954;BME280;25631;51.516;-0.470;2023-02-18T08:14:20;101845.07;;;8.60;44.10
39954;BME280;25631;51.516;-0.470;2023-02-18T08:16:57;101848.75;;;8.66;44.12
39954;BME280;25631;51.516;-0.470;2023-02-18T08:19:33;101850.31;;;8.66;43.98
39954;BME280;25631;51.516;-0.470;2023-02-18T08:22:10;101850.91;;;8.61;44.05
39954;BME280;25631;51.516;-0.470;2023-02-18T08:24:47;101849.29;;;8.65;44.05
39954;BME280;25631;51.516;-0.470;2023-02-18T08:27:24;101850.80;;;8.95;43.93
39954;BME280;25631;51.516;-0.470;2023-02-18T08:30:01;101846.09;;;8.53;44.03
39954;BME280;25631;51.516;-0.470;2023-02-18T08:32:37;101852.11;;;8.87;43.93
39954;BME280;25631;51.516;-0.470;2023-02-18T08:35:14;101857.60;;;8.83;44.19
39954;BME280;25631;51.516;-0.470;2023-02-18T08:37:50;101870.73;;;8.81;44.09
39954;BME280;25631;51.516;-0.470;2023-02-18T08:40:27;101872.82;;;8.71;43.90
39954;BME280;25631;51.516;-0.470;2023-02-18T08:43:04;101869.13;;;8.52;44.40
39954;BME280;25631;51.516;-0.470;2023-02-18T08:45:41;101875.31;;;8.89;44.13
39954;BME280;25631;51.516;-0.470;2023-02-18T08:48:19;101871.36;;;9.08;43.93
39954;BME280;25631;51.516;-0.470;2023-02-18T08:50:55;101876.06;;;8.83;44.11
39954;BME280;25631;51.516;-0.470;2023-02-18T08:53:32;101874.08;;;9.06;44.05
39954;BME280;25631;51.516;-0.470;2023-02-18T08:56:09;101883.04;;;9.03;44.22
39954;BME280;25631;51.516;-0.470;2023-02-18T08:58:46;101870.29;;;9.27;43.97
39954;BME280;25631;51.516;-0.470;2023-02-18T09:01:23;101882.07;;;9.29;44.13
39954;BME280;25631;51.516;-0.470;2023-02-18T09:04:00;101882.82;;;9.01;44.37
39954;BME280;25631;51.516;-0.470;2023-02-18T09:06:37;101878.97;;;9.34;44.23
39954;BME280;25631;51.516;-0.470;2023-02-18T09:09:14;101880.90;;;9.31;44.39
39954;BME280;25631;51.516;-0.470;2023-02-18T09:11:50;101877.61;;;9.02;44.29
39954;BME280;25631;51.516;-0.470;2023-02-18T09:14:27;101888.16;;;9.27;44.39
39954;BME280;25631;51.516;-0.470;2023-02-18T09:17:03;101888.96;;;9.00;44.62
39954;BME280;25631;51.516;-0.470;2023-02-18T09:19:40;101896.39;;;8.92;44.66
39954;BME280;25631;51.516;-0.470;2023-02-18T09:22:17;101889.80;;;9.57;44.35
39954;BME280;25631;51.516;-0.470;2023-02-18T09:24:53;101899.52;;;9.41;44.51
39954;BME280;25631;51.516;-0.470;2023-02-18T09:27:30;101900.42;;;9.14;44.57
39954;BME280;25631;51.516;-0.470;2023-02-18T09:30:07;101903.44;;;9.35;44.56
39954;BME280;25631;51.516;-0.470;2023-02-18T09:32:44;101906.51;;;9.50;44.53
39954;BME280;25631;51.516;-0.470;2023-02-18T09:35:21;101910.14;;;9.20;44.75
39954;BME280;25631;51.516;-0.470;2023-02-18T09:37:57;101915.55;;;9.25;44.86
39954;BME280;25631;51.516;-0.470;2023-02-18T09:40:36;101909.39;;;9.17;45.01
39954;BME280;25631;51.516;-0.470;2023-02-18T09:43:21;101907.08;;;9.41;44.96
39954;BME280;25631;51.516;-0.470;2023-02-18T09:46:00;101906.12;;;9.33;45.10
39954;BME280;25631;51.516;-0.470;2023-02-18T09:48:38;101904.85;;;9.14;45.06
39954;BME280;25631;51.516;-0.470;2023-02-18T09:51:15;101897.11;;;9.16;44.78
39954;BME280;25631;51.516;-0.470;2023-02-18T09:53:52;101895.20;;;9.36;44.98
39954;BME280;25631;51.516;-0.470;2023-02-18T09:56:31;101898.33;;;9.52;44.87
39954;BME280;25631;51.516;-0.470;2023-02-18T09:59:13;101905.75;;;9.41;44.94
39954;BME280;25631;51.516;-0.470;2023-02-18T10:01:52;101903.76;;;9.47;44.97
39954;BME280;25631;51.516;-0.470;2023-02-18T10:04:43;101903.88;;;9.34;44.74
39954;BME280;25631;51.516;-0.470;2023-02-18T10:07:24;101908.67;;;9.75;44.71
39954;BME280;25631;51.516;-0.470;2023-02-18T10:10:10;101912.68;;;9.71;44.57
39954;BME280;25631;51.516;-0.470;2023-02-18T10:12:52;101924.49;;;9.30;45.09
39954;BME280;25631;51.516;-0.470;2023-02-18T10:15:30;101918.37;;;9.71;44.85
39954;BME280;25631;51.516;-0.470;2023-02-18T10:18:18;101927.13;;;9.79;45.16
39954;BME280;25631;51.516;-0.470;2023-02-18T10:21:03;101921.50;;;9.62;45.01
39954;BME280;25631;51.516;-0.470;2023-02-18T10:23:52;101923.61;;;9.54;45.23
39954;BME280;25631;51.516;-0.470;2023-02-18T10:26:33;101928.83;;;9.85;45.25
39954;BME280;25631;51.516;-0.470;2023-02-18T10:29:14;101930.12;;;9.76;45.25
39954;BME280;25631;51.516;-0.470;2023-02-18T10:31:54;101939.85;;;9.58;45.50
39954;BME280;25631;51.516;-0.470;2023-02-18T10:34:39;101938.20;;;9.79;45.29
39954;BME280;25631;51.516;-0.470;2023-02-18T10:37:33;101936.54;;;9.55;45.61
39954;BME280;25631;51.516;-0.470;2023-02-18T10:40:17;101929.60;;;9.89;45.53
39954;BME280;25631;51.516;-0.470;2023-02-18T10:43:05;101933.53;;;9.73;45.71
39954;BME280;25631;51.516;-0.470;2023-02-18T10:45:49;101938.09;;;9.61;45.94
39954;BME280;25631;51.516;-0.470;2023-02-18T10:48:41;101936.40;;;9.47;45.89
39954;BME280;25631;51.516;-0.470;2023-02-18T10:51:27;101928.94;;;9.75;46.03
39954;BME280;25631;51.516;-0.470;2023-02-18T10:54:06;101929.48;;;9.59;46.08
39954;BME280;25631;51.516;-0.470;2023-02-18T10:56:46;101936.28;;;9.43;46.16
39954;BME280;25631;51.516;-0.470;2023-02-18T10:59:24;101939.72;;;9.60;46.27
39954;BME280;25631;51.516;-0.470;2023-02-18T11:02:13;101937.44;;;9.75;46.09
39954;BME280;25631;51.516;-0.470;2023-02-18T11:04:51;101946.36;;;9.45;46.14
39954;BME280;25631;51.516;-0.470;2023-02-18T11:07:31;101945.43;;;9.82;45.82
39954;BME280;25631;51.516;-0.470;2023-02-18T11:10:15;101951.04;;;10.04;45.70
39954;BME280;25631;51.516;-0.470;2023-02-18T11:12:56;101950.52;;;9.31;46.00
39954;BME280;25631;51.516;-0.470;2023-02-18T11:15:34;101949.74;;;9.85;45.89
39954;BME280;25631;51.516;-0.470;2023-02-18T11:18:14;101953.05;;;9.92;45.85
39954;BME280;25631;51.516;-0.470;2023-02-18T11:21:04;101952.13;;;9.79;45.93
39954;BME280;25631;51.516;-0.470;2023-02-18T11:23:46;101948.23;;;9.73;45.77
39954;BME280;25631;51.516;-0.470;2023-02-18T11:26:27;101952.70;;;9.87;45.60
39954;BME280;25631;51.516;-0.470;2023-02-18T11:29:11;101954.21;;;10.02;45.76
39954;BME280;25631;51.516;-0.470;2023-02-18T11:31:52;101949.78;;;9.96;45.76
39954;BME280;25631;51.516;-0.470;2023-02-18T11:34:31;101950.88;;;9.96;45.68
39954;BME280;25631;51.516;-0.470;2023-02-18T11:37:10;101950.92;;;9.90;45.64
39954;BME280;25631;51.516;-0.470;2023-02-18T11:39:49;101942.21;;;9.89;45.50
39954;BME280;25631;51.516;-0.470;2023-02-18T11:42:26;101942.91;;;9.95;45.20
39954;BME280;25631;51.516;-0.470;2023-02-18T11:45:03;101942.53;;;10.14;45.14
39954;BME280;25631;51.516;-0.470;2023-02-18T11:47:40;101942.79;;;10.23;45.03
39954;BME280;25631;51.516;-0.470;2023-02-18T11:50:21;101943.74;;;10.44;44.57
39954;BME280;25631;51.516;-0.470;2023-02-18T11:52:58;101936.01;;;10.31;44.52
39954;BME280;25631;51.516;-0.470;2023-02-18T11:55:35;101939.29;;;10.24;44.58
39954;BME280;25631;51.516;-0.470;2023-02-18T11:58:13;101936.28;;;10.35;44.57
39954;BME280;25631;51.516;-0.470;2023-02-18T12:00:53;101940.14;;;10.42;44.43
39954;BME280;25631;51.516;-0.470;2023-02-18T12:03:37;101941.53;;;10.57;44.41
39954;BME280;25631;51.516;-0.470;2023-02-18T12:06:21;101942.61;;;10.71;44.27
39954;BME280;25631;51.516;-0.470;2023-02-18T12:09:04;101939.80;;;10.63;44.26
39954;BME280;25631;51.516;-0.470;2023-02-18T12:11:44;101938.49;;;10.49;44.32
39954;BME280;25631;51.516;-0.470;2023-02-18T12:14:24;101934.81;;;10.55;44.33
39954;BME280;25631;51.516;-0.470;2023-02-18T12:17:13;101932.40;;;10.57;44.47
39954;BME280;25631;51.516;-0.470;2023-02-18T12:20:09;101930.52;;;10.58;44.16
39954;BME280;25631;51.516;-0.470;2023-02-18T12:22:54;101932.14;;;10.59;44.07
39954;BME280;25631;51.516;-0.470;2023-02-18T12:25:41;101930.65;;;10.76;44.15
39954;BME280;25631;51.516;-0.470;2023-02-18T12:28:31;101926.57;;;10.63;44.18
39954;BME280;25631;51.516;-0.470;2023-02-18T12:31:24;101929.88;;;10.21;44.32
39954;BME280;25631;51.516;-0.470;2023-02-18T12:34:16;101927.32;;;10.40;44.28
39954;BME280;25631;51.516;-0.470;2023-02-18T12:37:04;101926.55;;;10.71;44.26
39954;BME280;25631;51.516;-0.470;2023-02-18T12:40:01;101923.33;;;10.36;44.47
39954;BME280;25631;51.516;-0.470;2023-02-18T12:42:47;101930.15;;;10.66;44.51
39954;BME280;25631;51.516;-0.470;2023-02-18T12:45:44;101925.48;;;10.66;44.68
39954;BME280;25631;51.516;-0.470;2023-02-18T12:50:52;101917.59;;;10.47;44.97
39954;BME280;25631;51.516;-0.470;2023-02-18T12:53:45;101912.78;;;10.37;45.49
39954;BME280;25631;51.516;-0.470;2023-02-18T12:56:49;101911.36;;;10.59;45.48
39954;BME280;25631;51.516;-0.470;2023-02-18T12:59:45;101908.58;;;10.53;45.57
39954;BME280;25631;51.516;-0.470;2023-02-18T13:02:43;101905.82;;;10.63;45.32
39954;BME280;25631;51.516;-0.470;2023-02-18T13:05:30;101907.45;;;10.63;45.34
39954;BME280;25631;51.516;-0.470;2023-02-18T13:08:20;101901.07;;;11.00;44.96
39954;BME280;25631;51.516;-0.470;2023-02-18T13:11:11;101902.67;;;10.71;44.65
39954;BME280;25631;51.516;-0.470;2023-02-18T13:13:59;101903.40;;;10.69;44.71
39954;BME280;25631;51.516;-0.470;2023-02-18T13:16:39;101897.68;;;10.80;44.65
39954;BME280;25631;51.516;-0.470;2023-02-18T13:19:20;101900.71;;;10.69;44.84
39954;BME280;25631;51.516;-0.470;2023-02-18T13:21:59;101902.00;;;10.61;44.75
39954;BME280;25631;51.516;-0.470;2023-02-18T13:24:39;101900.25;;;11.08;44.60
39954;BME280;25631;51.516;-0.470;2023-02-18T13:27:23;101900.01;;;11.04;44.52
39954;BME280;25631;51.516;-0.470;2023-02-18T13:30:15;101898.36;;;10.93;44.62
39954;BME280;25631;51.516;-0.470;2023-02-18T13:33:03;101899.85;;;10.81;44.61
39954;BME280;25631;51.516;-0.470;2023-02-18T13:35:45;101891.79;;;10.77;44.69
39954;BME280;25631;51.516;-0.470;2023-02-18T13:38:47;101883.63;;;10.88;44.50
39954;BME280;25631;51.516;-0.470;2023-02-18T13:41:25;101886.23;;;10.84;44.48
39954;BME280;25631;51.516;-0.470;2023-02-18T13:44:07;101882.47;;;10.97;44.58
39954;BME280;25631;51.516;-0.470;2023-02-18T13:46:48;101874.41;;;10.97;44.62
39954;BME280;25631;51.516;-0.470;2023-02-18T13:49:31;101874.00;;;10.89;44.11
39954;BME280;25631;51.516;-0.470;2023-02-18T13:52:16;101871.73;;;10.80;43.86
39954;BME280;25631;51.516;-0.470;2023-02-18T13:54:54;101870.88;;;10.82;43.56
39954;BME280;25631;51.516;-0.470;2023-02-18T13:57:35;101861.30;;;10.89;43.13
39954;BME280;25631;51.516;-0.470;2023-02-18T14:00:20;101851.54;;;10.93;43.06